createdAt,value
2018-05-25T00:00:46.174Z,91.70
2018-05-25T00:03:14.399Z,91.80
2018-05-25T00:05:41.908Z,91.80
2018-05-25T00:08:09.414Z,92.10
2018-05-25T00:10:36.984Z,92.30
2018-05-25T00:13:04.465Z,92.40
2018-05-25T00:15:32.716Z,92.80
2018-05-25T00:18:00.196Z,92.70
2018-05-25T00:20:28.445Z,92.80
2018-05-25T00:22:56.111Z,92.90
2018-05-25T00:25:23.598Z,92.70
2018-05-25T00:27:51.219Z,92.70
2018-05-25T00:30:18.692Z,92.50
2018-05-25T00:32:47.113Z,92.50
2018-05-25T00:35:14.600Z,92.40
2018-05-25T00:37:42.074Z,92.50
2018-05-25T00:40:10.338Z,93.00
2018-05-25T00:42:37.813Z,92.60
2018-05-25T00:45:06.695Z,92.40
2018-05-25T00:47:34.168Z,92.40
2018-05-25T00:50:01.793Z,92.40
2018-05-25T00:52:29.359Z,92.50
2018-05-25T00:57:59.733Z,91.90
2018-05-25T01:00:27.383Z,92.10
2018-05-25T01:02:55.631Z,92.10
2018-05-25T01:05:23.132Z,92.10
2018-05-25T01:07:50.630Z,92.00
2018-05-25T01:10:18.278Z,91.80
2018-05-25T01:12:46.572Z,92.30
2018-05-25T01:15:14.051Z,92.20
2018-05-25T01:17:42.311Z,92.30
2018-05-25T01:20:11.303Z,92.30
2018-05-25T01:22:39.649Z,92.30
2018-05-25T01:25:07.203Z,92.30
2018-05-25T01:27:34.744Z,92.40
2018-05-25T01:30:02.241Z,92.20
2018-05-25T01:32:30.625Z,92.50
2018-05-25T01:34:58.122Z,92.50
2018-05-25T01:37:25.697Z,92.70
2018-05-25T01:39:53.317Z,92.40
2018-05-25T01:42:20.796Z,92.30
2018-05-25T01:44:49.066Z,92.20
2018-05-25T01:47:17.312Z,92.70
2018-05-25T01:49:45.512Z,92.70
2018-05-25T01:52:13.015Z,92.70
2018-05-25T01:54:40.527Z,92.60
2018-05-25T01:57:08.786Z,92.40
2018-05-25T01:59:37.023Z,92.30
2018-05-25T02:02:04.522Z,92.30
2018-05-25T02:04:32.966Z,92.00
2018-05-25T02:07:00.449Z,92.00
2018-05-25T02:09:27.921Z,92.20
2018-05-25T02:11:56.178Z,92.60
2018-05-25T02:14:24.538Z,92.60
2018-05-25T02:16:52.025Z,92.70
2018-05-25T02:19:20.308Z,92.20
2018-05-25T02:21:48.868Z,92.10
2018-05-25T02:24:17.124Z,92.10
2018-05-25T02:26:46.156Z,92.20
2018-05-25T02:29:14.591Z,92.10
2018-05-25T02:31:42.146Z,92.10
2018-05-25T02:34:09.732Z,91.90
2018-05-25T02:36:38.147Z,91.90
2018-05-25T02:39:06.475Z,92.40
2018-05-25T02:41:33.945Z,92.00
2018-05-25T02:44:02.188Z,92.30
2018-05-25T02:46:29.822Z,92.30
2018-05-25T02:48:57.424Z,92.40
2018-05-25T02:51:24.918Z,92.50
2018-05-25T02:53:52.403Z,92.60
2018-05-25T02:56:19.897Z,92.40
2018-05-25T02:58:47.369Z,92.50
2018-05-25T03:01:15.662Z,92.80
2018-05-25T03:03:44.151Z,93.00
2018-05-25T03:06:11.631Z,93.00
2018-05-25T03:08:39.117Z,92.90
2018-05-25T03:11:06.672Z,92.90
2018-05-25T03:13:34.192Z,93.00
2018-05-25T03:16:01.684Z,93.00
2018-05-25T03:18:29.307Z,93.10
2018-05-25T03:20:56.905Z,93.30
2018-05-25T03:23:24.381Z,93.30
2018-05-25T03:25:52.708Z,92.90
2018-05-25T03:28:20.190Z,92.90
2018-05-25T03:30:48.448Z,93.20
2018-05-25T03:33:16.064Z,93.20
2018-05-25T03:35:44.588Z,93.10
2018-05-25T03:38:12.560Z,93.10
2018-05-25T03:40:40.061Z,93.10
2018-05-25T03:43:07.663Z,93.20
2018-05-25T03:45:35.332Z,93.30
2018-05-25T03:48:02.825Z,93.50
2018-05-25T03:50:31.076Z,93.40
2018-05-25T03:52:59.178Z,93.40
2018-05-25T03:55:26.655Z,93.50
2018-05-25T03:57:54.632Z,93.50
2018-05-25T04:00:34.803Z,93.50
2018-05-25T04:03:03.045Z,93.40
2018-05-25T04:05:31.003Z,93.30
2018-05-25T04:07:58.496Z,93.60
2018-05-25T04:10:25.983Z,93.60
2018-05-25T04:12:53.554Z,93.50
2018-05-25T04:15:21.799Z,93.60
2018-05-25T04:17:49.355Z,93.50
2018-05-25T04:20:16.837Z,93.20
2018-05-25T04:22:45.091Z,93.40
2018-05-25T04:25:12.584Z,93.30
2018-05-25T04:27:40.823Z,93.60
2018-05-25T04:30:08.316Z,93.60
2018-05-25T04:32:40.301Z,93.20
2018-05-25T04:35:07.780Z,93.00
2018-05-25T04:37:35.528Z,93.00
2018-05-25T04:40:03.009Z,93.10
2018-05-25T04:42:31.212Z,93.10
2018-05-25T04:44:59.467Z,93.30
2018-05-25T04:47:26.966Z,93.30
2018-05-25T04:49:54.567Z,93.20
2018-05-25T04:52:22.078Z,93.50
2018-05-25T04:54:49.884Z,92.70
2018-05-25T04:57:17.436Z,92.60
2018-05-25T04:59:44.899Z,92.90
2018-05-25T05:02:12.996Z,92.90
2018-05-25T05:04:40.503Z,92.30
2018-05-25T05:07:07.996Z,92.40
2018-05-25T05:09:35.556Z,92.20
2018-05-25T05:12:04.578Z,92.80
2018-05-25T05:14:32.930Z,92.70
2018-05-25T05:17:00.420Z,92.70
2018-05-25T05:19:27.910Z,92.90
2018-05-25T05:21:55.578Z,93.10
2018-05-25T05:24:23.284Z,93.10
2018-05-25T05:26:51.784Z,92.90
2018-05-25T05:29:19.334Z,92.90
2018-05-25T05:31:47.051Z,92.70
2018-05-25T05:34:14.542Z,92.60
2018-05-25T05:36:42.777Z,91.80
2018-05-25T05:39:10.451Z,91.70
2018-05-25T05:41:38.159Z,91.10
2018-05-25T05:44:05.679Z,91.00
2018-05-25T05:46:33.311Z,91.00
2018-05-25T05:49:00.943Z,91.20
2018-05-25T05:51:28.434Z,91.10
2018-05-25T05:53:56.067Z,91.10
2018-05-25T05:56:23.695Z,90.80
2018-05-25T05:58:52.144Z,90.30
2018-05-25T06:01:19.698Z,90.30
2018-05-25T06:03:47.210Z,90.40
2018-05-25T06:06:14.676Z,90.70
2018-05-25T06:08:42.216Z,90.50
2018-05-25T06:11:09.751Z,90.50
2018-05-25T06:13:38.001Z,89.50
2018-05-25T06:16:05.494Z,89.30
2018-05-25T06:18:33.851Z,90.00
2018-05-25T06:21:02.288Z,90.10
2018-05-25T06:23:29.783Z,90.10
2018-05-25T06:25:57.371Z,89.50
2018-05-25T06:28:25.698Z,89.40
2018-05-25T06:30:53.323Z,89.30
2018-05-25T06:33:20.788Z,90.10
2018-05-25T06:35:48.896Z,90.30
2018-05-25T06:38:16.377Z,90.40
2018-05-25T06:40:44.615Z,90.20
2018-05-25T06:43:12.839Z,90.20
2018-05-25T06:45:40.776Z,90.20
2018-05-25T06:48:09.172Z,90.60
2018-05-25T06:50:37.464Z,90.80
2018-05-25T06:53:05.067Z,90.50
2018-05-25T06:55:32.706Z,90.20
2018-05-25T06:58:00.261Z,90.10
2018-05-25T07:00:27.736Z,89.40
2018-05-25T07:02:55.355Z,88.60
2018-05-25T07:05:22.955Z,88.80
2018-05-25T07:07:50.431Z,88.00
2018-05-25T07:10:18.063Z,86.80
2018-05-25T07:12:45.694Z,86.90
2018-05-25T07:15:13.259Z,86.30
2018-05-25T07:17:40.852Z,86.10
2018-05-25T07:20:08.335Z,85.80
2018-05-25T07:22:36.625Z,84.70
2018-05-25T07:25:04.960Z,84.40
2018-05-25T07:27:33.965Z,83.50
2018-05-25T07:30:01.428Z,83.40
2018-05-25T07:32:29.687Z,81.40
2018-05-25T07:34:57.156Z,81.30
2018-05-25T07:37:24.624Z,80.00
2018-05-25T07:39:52.870Z,80.80
2018-05-25T07:42:20.334Z,80.90
2018-05-25T07:44:47.907Z,76.50
2018-05-25T07:47:16.350Z,77.60
2018-05-25T07:49:43.851Z,77.50
2018-05-25T07:52:12.088Z,71.90
2018-05-25T07:54:39.638Z,71.80
2018-05-25T07:57:07.287Z,74.30
2018-05-25T07:59:34.760Z,74.40
2018-05-25T08:02:03.023Z,74.70
2018-05-25T08:04:31.111Z,74.00
2018-05-25T08:06:58.608Z,73.70
2018-05-25T08:09:26.085Z,71.70
2018-05-25T08:11:53.620Z,70.40
2018-05-25T08:14:21.243Z,71.80
2018-05-25T08:16:48.737Z,73.10
2018-05-25T08:19:17.032Z,72.40
2018-05-25T08:21:44.547Z,72.30
2018-05-25T08:24:12.003Z,71.10
2018-05-25T08:26:39.471Z,68.90
2018-05-25T08:29:07.753Z,67.00
2018-05-25T08:31:35.999Z,65.00
2018-05-25T08:34:03.533Z,65.00
2018-05-25T08:36:31.008Z,66.50
2018-05-25T08:38:58.636Z,66.60
2018-05-25T08:41:26.168Z,66.00
2018-05-25T08:43:53.651Z,63.40
2018-05-25T08:46:21.149Z,63.60
2018-05-25T08:48:49.407Z,65.50
2018-05-25T08:51:16.982Z,65.50
2018-05-25T08:53:44.454Z,63.90
2018-05-25T08:56:12.721Z,65.70
2018-05-25T08:58:41.485Z,61.50
2018-05-25T09:01:08.963Z,61.50
2018-05-25T09:03:37.306Z,59.50
2018-05-25T09:06:04.803Z,59.50
2018-05-25T09:08:33.047Z,61.20
2018-05-25T09:11:00.605Z,61.20
2018-05-25T09:13:28.232Z,60.00
2018-05-25T09:15:55.776Z,57.10
2018-05-25T09:18:23.264Z,57.60
2018-05-25T09:20:50.751Z,57.10
2018-05-25T09:23:18.234Z,55.40
2018-05-25T09:25:45.693Z,56.00
2018-05-25T09:28:13.194Z,58.00
2018-05-25T09:30:40.694Z,55.30
2018-05-25T09:33:08.979Z,56.00
2018-05-25T09:35:36.609Z,55.90
2018-05-25T09:38:04.100Z,55.90
2018-05-25T09:40:31.716Z,55.50
2018-05-25T09:42:59.244Z,56.60
2018-05-25T09:45:26.846Z,55.40
2018-05-25T09:47:55.101Z,56.40
2018-05-25T09:50:22.568Z,56.40
2018-05-25T09:52:50.048Z,55.20
2018-05-25T09:55:18.417Z,53.80
2018-05-25T09:57:56.734Z,53.40
2018-05-25T10:00:25.943Z,54.40
2018-05-25T10:02:53.431Z,54.40
2018-05-25T10:05:20.972Z,55.50
2018-05-25T10:07:48.450Z,57.50
2018-05-25T10:10:15.981Z,57.60
2018-05-25T10:12:44.470Z,56.40
2018-05-25T10:15:12.564Z,56.30
2018-05-25T10:17:40.032Z,57.30
2018-05-25T10:20:07.740Z,56.70
2018-05-25T10:22:35.312Z,55.00
2018-05-25T10:25:02.803Z,53.50
2018-05-25T10:27:31.028Z,54.20
2018-05-25T10:29:58.503Z,52.10
2018-05-25T10:32:26.016Z,52.80
2018-05-25T10:34:54.290Z,50.50
2018-05-25T10:37:22.721Z,54.50
2018-05-25T10:39:50.248Z,54.50
2018-05-25T10:42:17.728Z,52.50
2018-05-25T10:44:45.207Z,50.70
2018-05-25T10:47:12.878Z,51.70
2018-05-25T10:49:40.382Z,52.20
2018-05-25T10:52:07.860Z,51.20
2018-05-25T10:54:35.358Z,52.80
2018-05-25T10:57:03.621Z,50.60
2018-05-25T10:59:31.095Z,50.50
2018-05-25T11:01:59.371Z,50.40
2018-05-25T11:04:27.700Z,46.80
2018-05-25T11:06:55.180Z,46.80
2018-05-25T11:09:23.256Z,47.10
2018-05-25T11:11:51.559Z,46.30
2018-05-25T11:14:19.790Z,46.40
2018-05-25T11:16:48.105Z,43.50
2018-05-25T11:19:16.354Z,43.20
2018-05-25T11:21:43.845Z,43.20
2018-05-25T11:24:12.275Z,39.50
2018-05-25T11:26:39.756Z,39.50
2018-05-25T11:29:08.003Z,49.40
2018-05-25T11:31:35.492Z,49.40
2018-05-25T11:34:03.002Z,52.90
2018-05-25T11:36:30.491Z,54.50
2018-05-25T11:38:58.756Z,54.20
2018-05-25T11:41:26.324Z,53.90
2018-05-25T11:43:53.818Z,53.40
2018-05-25T11:46:21.305Z,53.50
2018-05-25T11:48:49.420Z,55.70
2018-05-25T11:51:17.674Z,51.40
2018-05-25T11:53:45.220Z,51.30
2018-05-25T11:56:12.715Z,50.20
2018-05-25T11:58:40.977Z,50.00
2018-05-25T12:01:08.602Z,50.00
2018-05-25T12:03:36.107Z,50.20
2018-05-25T12:06:04.364Z,52.30
2018-05-25T12:08:31.875Z,52.30
2018-05-25T12:10:59.505Z,51.20
2018-05-25T12:13:27.892Z,51.40
2018-05-25T12:15:56.350Z,50.80
2018-05-25T12:18:24.647Z,49.50
2018-05-25T12:20:52.869Z,49.70
2018-05-25T12:23:20.347Z,49.60
2018-05-25T12:25:49.150Z,45.60
2018-05-25T12:28:17.405Z,46.80
2018-05-25T12:30:44.897Z,46.70
2018-05-25T12:33:12.511Z,47.50
2018-05-25T12:35:40.121Z,47.50
2018-05-25T12:38:07.624Z,47.80
2018-05-25T12:40:35.173Z,44.60
2018-05-25T12:43:02.815Z,46.20
2018-05-25T12:45:30.366Z,45.50
2018-05-25T12:47:57.936Z,42.40
2018-05-25T12:50:25.408Z,44.50
2018-05-25T12:52:53.048Z,45.00
2018-05-25T12:55:20.547Z,44.00
2018-05-25T12:57:48.095Z,43.80
2018-05-25T13:00:15.652Z,44.80
2018-05-25T13:02:43.213Z,44.80
2018-05-25T13:05:11.462Z,42.20
2018-05-25T13:07:38.953Z,42.10
2018-05-25T13:10:07.302Z,43.20
2018-05-25T13:12:34.773Z,43.30
2018-05-25T13:15:02.364Z,42.40
2018-05-25T13:17:29.873Z,41.80
2018-05-25T13:19:57.365Z,42.00
2018-05-25T13:22:25.600Z,41.80
2018-05-25T13:24:53.084Z,41.80
2018-05-25T13:27:20.730Z,40.40
2018-05-25T13:29:48.205Z,41.00
2018-05-25T13:32:16.472Z,39.90
2018-05-25T13:34:44.008Z,39.90
2018-05-25T13:37:11.505Z,39.40
2018-05-25T13:39:39.774Z,42.10
2018-05-25T13:42:08.036Z,43.90
2018-05-25T13:44:35.595Z,44.50
2018-05-25T13:47:03.955Z,46.40
2018-05-25T13:49:31.476Z,46.50
2018-05-25T13:51:59.174Z,48.90
2018-05-25T13:54:26.682Z,48.10
2018-05-25T13:56:54.167Z,48.80
2018-05-25T13:59:21.736Z,48.50
2018-05-25T14:01:49.252Z,48.90
2018-05-25T14:04:16.761Z,50.30
2018-05-25T14:06:44.260Z,49.60
2018-05-25T14:09:13.267Z,49.30
2018-05-25T14:11:41.242Z,49.30
2018-05-25T14:14:09.494Z,42.50
2018-05-25T14:16:36.992Z,42.50
2018-05-25T14:19:04.476Z,37.70
2018-05-25T14:21:31.954Z,34.70
2018-05-25T14:24:00.193Z,32.30
2018-05-25T14:26:27.769Z,32.30
2018-05-25T14:28:56.176Z,31.60
2018-05-25T14:31:23.665Z,30.90
2018-05-25T14:33:51.151Z,29.20
2018-05-25T14:36:18.656Z,29.50
2018-05-25T14:38:46.190Z,29.10
2018-05-25T14:41:13.725Z,29.30
2018-05-25T14:43:41.299Z,27.50
2018-05-25T14:46:09.669Z,27.70
2018-05-25T14:48:37.325Z,27.60
2018-05-25T14:51:04.837Z,28.80
2018-05-25T14:53:32.598Z,28.80
2018-05-25T14:56:00.151Z,27.60
2018-05-25T14:58:27.737Z,28.80
2018-05-25T15:00:55.251Z,30.20
2018-05-25T15:03:22.877Z,34.20
2018-05-25T15:05:51.265Z,36.90
2018-05-25T15:08:18.801Z,36.80
2018-05-25T15:10:46.377Z,37.30
2018-05-25T15:13:14.743Z,41.50
2018-05-25T15:15:42.232Z,41.40
2018-05-25T15:18:09.730Z,43.70
2018-05-25T15:20:37.241Z,44.10
2018-05-25T15:23:05.489Z,43.20
2018-05-25T15:25:33.117Z,43.20
2018-05-25T15:28:01.368Z,42.10
2018-05-25T15:30:29.127Z,41.90
2018-05-25T15:32:56.830Z,42.20
2018-05-25T15:35:24.393Z,42.80
2018-05-25T15:37:52.160Z,43.00
2018-05-25T15:40:20.418Z,44.60
2018-05-25T15:42:48.075Z,44.60
2018-05-25T15:45:16.570Z,47.00
2018-05-25T15:47:44.224Z,46.80
2018-05-25T15:50:11.838Z,48.70
2018-05-25T15:52:39.330Z,48.80
2018-05-25T15:55:06.828Z,49.00
2018-05-25T15:57:35.065Z,47.60
2018-05-25T16:00:02.837Z,47.60
2018-05-25T16:02:31.921Z,48.40
2018-05-25T16:05:00.265Z,48.30
2018-05-25T16:07:27.783Z,48.20
2018-05-25T16:09:55.301Z,47.70
2018-05-25T16:12:22.907Z,48.10
2018-05-25T16:14:51.265Z,44.10
2018-05-25T16:17:18.760Z,44.00
2018-05-25T16:19:46.894Z,40.70
2018-05-25T16:22:14.376Z,37.90
2018-05-25T16:24:42.654Z,35.30
2018-05-25T16:27:11.026Z,34.00
2018-05-25T16:29:39.503Z,35.00
2018-05-25T16:32:07.750Z,37.50
2018-05-25T16:34:35.273Z,36.90
2018-05-25T16:37:02.797Z,39.30
2018-05-25T16:39:31.059Z,36.00
2018-05-25T16:41:59.161Z,36.00
2018-05-25T16:44:26.656Z,33.70
2018-05-25T16:46:54.246Z,31.60
2018-05-25T16:49:22.733Z,32.40
2018-05-25T16:51:51.111Z,31.90
2018-05-25T16:54:19.360Z,31.50
2018-05-25T16:56:46.889Z,31.50
2018-05-25T16:59:14.492Z,31.20
2018-05-25T17:01:43.021Z,31.20
2018-05-25T17:04:10.517Z,31.20
2018-05-25T17:06:37.999Z,31.80
2018-05-25T17:09:06.274Z,31.60
2018-05-25T17:11:35.005Z,31.80
2018-05-25T17:14:02.550Z,31.80
2018-05-25T17:16:30.245Z,32.80
2018-05-25T17:18:57.824Z,33.30
2018-05-25T17:21:26.211Z,31.90
2018-05-25T17:23:54.522Z,32.30
2018-05-25T17:26:22.085Z,32.30
2018-05-25T17:28:49.744Z,32.60
2018-05-25T17:31:17.250Z,31.60
2018-05-25T17:33:44.728Z,33.20
2018-05-25T17:36:12.282Z,32.30
2018-05-25T17:38:39.820Z,30.90
2018-05-25T17:41:07.361Z,31.20
2018-05-25T17:43:34.855Z,31.40
2018-05-25T17:46:03.211Z,33.00
2018-05-25T17:48:30.867Z,33.00
2018-05-25T17:50:58.356Z,34.60
2018-05-25T17:53:26.617Z,38.60
2018-05-25T17:55:54.887Z,41.60
2018-05-25T17:58:23.132Z,44.20
2018-05-25T18:00:50.618Z,44.20
2018-05-25T18:03:19.447Z,49.40
2018-05-25T18:05:47.151Z,49.40
2018-05-25T18:08:14.632Z,50.50
2018-05-25T18:10:42.895Z,51.30
2018-05-25T18:13:11.166Z,51.70
2018-05-25T18:15:38.664Z,51.70
2018-05-25T18:18:06.263Z,51.60
2018-05-25T18:20:33.907Z,54.10
2018-05-25T18:23:01.486Z,54.30
2018-05-25T18:25:28.956Z,55.50
2018-05-25T18:27:56.482Z,57.20
2018-05-25T18:30:24.077Z,60.30
2018-05-25T18:32:52.360Z,64.40
2018-05-25T18:35:20.812Z,66.00
2018-05-25T18:37:48.324Z,66.00
2018-05-25T18:40:16.041Z,67.40
2018-05-25T18:42:43.829Z,70.20
2018-05-25T18:45:11.433Z,71.90
2018-05-25T18:47:39.069Z,73.20
2018-05-25T18:50:06.645Z,74.50
2018-05-25T18:52:34.132Z,75.40
2018-05-25T18:55:01.712Z,75.90
2018-05-25T18:57:30.003Z,77.40
2018-05-25T18:59:57.518Z,77.40
2018-05-25T19:02:25.035Z,77.20
2018-05-25T19:04:52.836Z,76.90
2018-05-25T19:07:20.374Z,77.30
2018-05-25T19:09:47.901Z,77.30
2018-05-25T19:12:15.410Z,77.60
2018-05-25T19:14:42.951Z,77.90
2018-05-25T19:17:10.519Z,79.30
2018-05-25T19:19:38.079Z,79.70
2018-05-25T19:22:05.681Z,80.30
2018-05-25T19:24:33.187Z,81.00
2018-05-25T19:27:00.678Z,81.30
2018-05-25T19:29:28.914Z,82.50
2018-05-25T19:31:56.434Z,82.40
2018-05-25T19:34:23.956Z,82.70
2018-05-25T19:36:51.449Z,82.90
2018-05-25T19:39:18.937Z,82.90
2018-05-25T19:41:47.152Z,82.90
2018-05-25T19:44:15.409Z,82.90
2018-05-25T19:46:43.509Z,82.80
2018-05-25T19:49:11.059Z,83.20
2018-05-25T19:51:39.324Z,83.60
2018-05-25T19:54:07.593Z,83.90
2018-05-25T19:56:35.813Z,83.90
2018-05-25T19:59:03.314Z,83.90
2018-05-25T20:01:30.935Z,83.90
2018-05-25T20:03:58.451Z,84.40
2018-05-25T20:06:26.710Z,84.70
2018-05-25T20:08:54.221Z,84.70
2018-05-25T20:11:21.879Z,84.80
2018-05-25T20:13:50.367Z,85.90
2018-05-25T20:16:17.929Z,85.20
2018-05-25T20:18:45.388Z,85.30
2018-05-25T20:21:12.988Z,84.80
2018-05-25T20:23:41.240Z,84.60
2018-05-25T20:26:08.740Z,84.50
2018-05-25T20:28:36.400Z,84.70
2018-05-25T20:31:03.860Z,85.20
2018-05-25T20:33:31.362Z,85.90
2018-05-25T20:35:58.862Z,85.80
2018-05-25T20:38:27.115Z,86.80
2018-05-25T20:40:55.257Z,86.80
2018-05-25T20:43:22.712Z,87.30
2018-05-25T20:45:50.187Z,87.40
2018-05-25T20:48:17.735Z,87.30
2018-05-25T20:50:45.316Z,87.30
2018-05-25T20:53:13.469Z,87.30
2018-05-25T20:55:40.954Z,87.00
2018-05-25T20:58:09.407Z,86.90
2018-05-25T21:00:36.883Z,86.80
2018-05-25T21:03:05.210Z,87.00
2018-05-25T21:05:32.758Z,87.00
2018-05-25T21:08:00.257Z,86.90
2018-05-25T21:10:27.930Z,86.40
2018-05-25T21:12:55.398Z,86.70
2018-05-25T21:15:23.635Z,87.30
2018-05-25T21:17:51.239Z,87.30
2018-05-25T21:20:18.680Z,87.40
2018-05-25T21:22:46.946Z,87.00
2018-05-25T21:25:14.425Z,87.00
2018-05-25T21:27:42.718Z,87.40
2018-05-25T21:30:10.328Z,87.30
2018-05-25T21:32:37.776Z,88.30
2018-05-25T21:35:05.410Z,87.60
2018-05-25T21:37:33.032Z,87.10
2018-05-25T21:40:01.299Z,87.30
2018-05-25T21:42:29.533Z,87.70
2018-05-25T21:44:57.036Z,87.70
2018-05-25T21:47:25.273Z,87.90
2018-05-25T21:49:54.383Z,88.30
2018-05-25T21:52:22.706Z,88.80
2018-05-25T21:54:50.652Z,88.10
2018-05-25T21:57:18.251Z,88.40
2018-05-25T21:59:45.794Z,88.60
2018-05-25T22:02:13.500Z,88.90
2018-05-25T22:04:40.960Z,88.90
2018-05-25T22:07:08.448Z,89.00
2018-05-25T22:09:36.713Z,88.40
2018-05-25T22:12:04.949Z,89.10
2018-05-25T22:14:32.461Z,89.10
2018-05-25T22:16:59.995Z,89.50
2018-05-25T22:19:28.398Z,88.80
2018-05-25T22:21:55.865Z,88.80
2018-05-25T22:24:23.525Z,89.40
2018-05-25T22:26:51.181Z,90.00
2018-05-25T22:29:18.670Z,89.80
2018-05-25T22:31:46.332Z,89.40
2018-05-25T22:34:13.803Z,89.50
2018-05-25T22:36:41.296Z,89.30
2018-05-25T22:39:08.764Z,89.50
2018-05-25T22:41:36.264Z,89.30
2018-05-25T22:44:15.767Z,89.10
2018-05-25T22:46:55.216Z,89.50
2018-05-25T22:49:34.509Z,89.80
2018-05-25T22:52:14.088Z,89.50
2018-05-25T22:54:42.469Z,89.20
2018-05-25T22:57:10.103Z,89.60
2018-05-25T22:59:38.583Z,90.00
2018-05-25T23:02:06.180Z,90.00
2018-05-25T23:04:33.708Z,89.60
2018-05-25T23:07:02.438Z,89.70
2018-05-25T23:09:30.075Z,89.60
2018-05-25T23:11:57.647Z,90.00
2018-05-25T23:14:25.146Z,89.90
2018-05-25T23:16:53.379Z,90.00
2018-05-25T23:19:20.877Z,90.00
2018-05-25T23:21:48.360Z,90.10
2018-05-25T23:24:15.997Z,90.10
2018-05-25T23:26:43.475Z,90.30
2018-05-25T23:29:10.948Z,90.20
2018-05-25T23:31:38.431Z,89.90
2018-05-25T23:34:06.003Z,90.00
2018-05-25T23:36:34.260Z,90.10
2018-05-25T23:39:01.809Z,90.10
2018-05-25T23:41:29.285Z,90.00
2018-05-25T23:43:57.533Z,90.00
2018-05-25T23:46:25.304Z,90.00
2018-05-25T23:48:52.795Z,90.00
2018-05-25T23:51:21.087Z,90.10
2018-05-25T23:53:49.171Z,90.10
2018-05-25T23:56:16.648Z,90.00
2018-05-25T23:58:44.305Z,90.50
